^^

..:: Storico WU ::..




Lo storico viene creato da WUnderground con i dati che la stazione Meteomincio invia al loro server. L' aggiornamento viene fatto ogni 5 minuti circa, tuttavia possono esserci intervalli pił ampi a causa di errori, interruzioni di servizio o problemi nell' invio tramite FTP.


Storico stazione MeteoMincio
Giorno Sommario per Febbario 09, 2022 Unità:  Inglese    Metrico   Entrambi
Giorno Settimana Mese Anno
  Max: Min: Media:
Temperatura: 59 °F 30.2 °F 42.4 °F
Dew Point: 44.6 °F 24.8 °F 34.5 °F
Umidità: 91% 54% 75%
Velocità vento: 8.7mph 0mph 2.4mph
Raffica: 11.8mph - -
Direzione- - SSW
Pressione: 30.5 in 30.4 in -
Precipitazioni: 0 in    
 
 
Tabulato Dati per Febbario 09, 2022
Ora Temperatura Dew Point Pressione Direzione Velocità vento Raffica Umidità Intensità pioggia (oraria) Info solare Situazione
00:04 35.6 °F 26.6 °F 30.5 in Calm     70% 0 in 0.00 W/m2 unknown
00:09 33.8 °F 26.6 °F 30.5 in Calm     72% 0 in 0.00 W/m2 unknown
00:14 33.8 °F 26.6 °F 30.5 in Calm     73% 0 in 0.00 W/m2 unknown
00:19 33.8 °F 26.6 °F 30.5 in Calm     73% 0 in 0.00 W/m2 unknown
00:24 33.8 °F 26.6 °F 30.5 in Calm     73% 0 in 0.00 W/m2 unknown
00:29 33.8 °F 26.6 °F 30.5 in Calm   1.2 mph 73% 0 in 0.00 W/m2 unknown
00:34 33.8 °F 24.8 °F 30.5 in Calm   1.2 mph 73% 0 in 0.00 W/m2 unknown
00:39 32 °F 24.8 °F 30.5 in Calm   1.2 mph 74% 0 in 0.00 W/m2 unknown
00:44 32 °F 24.8 °F 30.5 in NW 1.2 mph 2.5 mph 74% 0 in 0.00 W/m2 unknown
00:49 32 °F 24.8 °F 30.5 in WNW 2.5 mph 3.7 mph 74% 0 in 0.00 W/m2 unknown
00:54 32 °F 24.8 °F 30.5 in WNW 2.5 mph 3.7 mph 74% 0 in 0.00 W/m2 unknown
00:59 32 °F 24.8 °F 30.5 in WNW 2.5 mph 3.7 mph 74% 0 in 0.00 W/m2 unknown
01:04 32 °F 24.8 °F 30.5 in WNW 2.5 mph 3.7 mph 75% 0 in 0.00 W/m2 unknown
01:09 32 °F 24.8 °F 30.5 in WNW 1.9 mph 3.7 mph 75% 0 in 0.00 W/m2 unknown
01:14 32 °F 24.8 °F 30.5 in WNW 2.5 mph 3.7 mph 74% 0 in 0.00 W/m2 unknown
01:19 32 °F 24.8 °F 30.5 in WNW 2.5 mph 3.7 mph 75% 0 in 0.00 W/m2 unknown
01:24 32 °F 24.8 °F 30.5 in WNW 2.5 mph 3.7 mph 74% 0 in 0.00 W/m2 unknown
01:29 32 °F 26.6 °F 30.5 in NNW 2.5 mph 3.7 mph 76% 0 in 0.00 W/m2 unknown
01:34 32 °F 26.6 °F 30.5 in NNW 1.9 mph 3.7 mph 76% 0 in 0.00 W/m2 unknown
01:39 32 °F 26.6 °F 30.5 in NNW 1.9 mph 3.7 mph 75% 0 in 0.00 W/m2 unknown
01:44 32 °F 24.8 °F 30.5 in NNW 1.9 mph 3.1 mph 75% 0 in 0.00 W/m2 unknown
01:49 32 °F 24.8 °F 30.5 in NNW 1.9 mph 2.5 mph 76% 0 in 0.00 W/m2 unknown
01:54 32 °F 26.6 °F 30.5 in NNW 1.9 mph 3.7 mph 77% 0 in 0.00 W/m2 unknown
01:59 33.8 °F 28.4 °F 30.5 in North 2.5 mph 3.7 mph 81% 0 in 0.00 W/m2 unknown
02:04 33.8 °F 26.6 °F 30.5 in NNW 2.5 mph 3.7 mph 75% 0 in 0.00 W/m2 unknown
02:09 33.8 °F 26.6 °F 30.5 in North 2.5 mph 3.7 mph 75% 0 in 0.00 W/m2 unknown
02:14 33.8 °F 26.6 °F 30.5 in North 1.9 mph 3.7 mph 75% 0 in 0.00 W/m2 unknown
02:19 33.8 °F 26.6 °F 30.5 in North 1.9 mph 2.5 mph 75% 0 in 0.00 W/m2 unknown
02:24 33.8 °F 26.6 °F 30.5 in North 1.2 mph 2.5 mph 76% 0 in 0.00 W/m2 unknown
02:29 32 °F 26.6 °F 30.5 in NE 1.9 mph 2.5 mph 78% 0 in 0.00 W/m2 unknown
02:34 32 °F 26.6 °F 30.5 in NE 1.9 mph 3.7 mph 79% 0 in 0.00 W/m2 unknown
02:39 32 °F 26.6 °F 30.5 in ENE 2.5 mph 3.7 mph 80% 0 in 0.00 W/m2 unknown
02:44 32 °F 26.6 °F 30.5 in ENE 2.5 mph 3.7 mph 80% 0 in 0.00 W/m2 unknown
02:49 32 °F 26.6 °F 30.5 in ENE 1.9 mph 3.1 mph 81% 0 in 0.00 W/m2 unknown
02:54 32 °F 26.6 °F 30.5 in ENE 1.9 mph 3.1 mph 81% 0 in 0.00 W/m2 unknown
02:59 32 °F 26.6 °F 30.5 in ENE 3.1 mph 3.7 mph 82% 0 in 0.00 W/m2 unknown
03:04 32 °F 26.6 °F 30.5 in East 3.1 mph 3.7 mph 83% 0 in 0.00 W/m2 unknown
03:09 32 °F 26.6 °F 30.5 in East 3.1 mph 3.7 mph 83% 0 in 0.00 W/m2 unknown
03:14 32 °F 26.6 °F 30.5 in East 3.1 mph 3.7 mph 83% 0 in 0.00 W/m2 unknown
03:19 32 °F 26.6 °F 30.5 in East 1.9 mph 2.5 mph 83% 0 in 0.00 W/m2 unknown
03:24 32 °F 26.6 °F 30.5 in SSW 4.3 mph 5 mph 83% 0 in 0.00 W/m2 unknown
03:29 32 °F 26.6 °F 30.5 in South 3.1 mph 5 mph 83% 0 in 0.00 W/m2 unknown
03:34 32 °F 26.6 °F 30.5 in South 2.5 mph 3.7 mph 82% 0 in 0.00 W/m2 unknown
03:39 32 °F 26.6 °F 30.5 in South 1.2 mph 3.1 mph 82% 0 in 0.00 W/m2 unknown
03:44 32 °F 26.6 °F 30.5 in South 0.6 mph 1.9 mph 82% 0 in 0.00 W/m2 unknown
03:49 32 °F 26.6 °F 30.5 in South 1.2 mph 2.5 mph 81% 0 in 0.00 W/m2 unknown
03:54 32 °F 26.6 °F 30.5 in South 1.2 mph 2.5 mph 81% 0 in 0.00 W/m2 unknown
03:59 32 °F 26.6 °F 30.5 in South 0.6 mph 1.9 mph 81% 0 in 0.00 W/m2 unknown
04:04 32 °F 26.6 °F 30.5 in South 2.5 mph 3.7 mph 81% 0 in 0.00 W/m2 unknown
04:09 32 °F 26.6 °F 30.5 in SSE 2.5 mph 3.7 mph 81% 0 in 0.00 W/m2 unknown
04:14 30.2 °F 26.6 °F 30.5 in Calm   3.1 mph 82% 0 in 0.00 W/m2 unknown
04:19 32 °F 26.6 °F 30.5 in South 1.9 mph 2.5 mph 82% 0 in 0.00 W/m2 unknown
04:24 32 °F 26.6 °F 30.5 in South 2.5 mph 3.7 mph 81% 0 in 0.00 W/m2 unknown
04:29 30.2 °F 24.8 °F 30.5 in SW 3.1 mph 3.7 mph 82% 0 in 0.00 W/m2 unknown
04:34 30.2 °F 26.6 °F 30.5 in SW 3.7 mph 3.7 mph 82% 0 in 0.00 W/m2 unknown
04:39 32 °F 26.6 °F 30.5 in SSW 3.7 mph 3.7 mph 81% 0 in 0.00 W/m2 unknown
04:44 32 °F 26.6 °F 30.5 in SSW 3.1 mph 3.7 mph 80% 0 in 0.00 W/m2 unknown
04:49 30.2 °F 24.8 °F 30.5 in SSW 2.5 mph 3.7 mph 80% 0 in 0.00 W/m2 unknown
04:54 30.2 °F 24.8 °F 30.5 in SW 1.9 mph 3.7 mph 80% 0 in 0.00 W/m2 unknown
04:59 30.2 °F 24.8 °F 30.5 in SW 1.9 mph 3.1 mph 80% 0 in 0.00 W/m2 unknown
05:04 30.2 °F 24.8 °F 30.5 in SW 1.2 mph 2.5 mph 80% 0 in 0.00 W/m2 unknown
05:09 30.2 °F 24.8 °F 30.5 in Calm   1.9 mph 81% 0 in 0.00 W/m2 unknown
05:14 30.2 °F 24.8 °F 30.5 in SW 0.6 mph 1.2 mph 81% 0 in 0.00 W/m2 unknown
05:19 30.2 °F 24.8 °F 30.5 in SW 0.6 mph 1.2 mph 81% 0 in 0.00 W/m2 unknown
05:24 30.2 °F 24.8 °F 30.5 in SW 0.6 mph 1.2 mph 81% 0 in 0.00 W/m2 unknown
05:29 30.2 °F 24.8 °F 30.5 in Calm     82% 0 in 0.00 W/m2 unknown
05:34 30.2 °F 24.8 °F 30.5 in Calm   1.2 mph 82% 0 in 0.00 W/m2 unknown
05:39 30.2 °F 26.6 °F 30.5 in Calm   1.2 mph 82% 0 in 0.00 W/m2 unknown
05:44 30.2 °F 24.8 °F 30.5 in Calm   1.2 mph 82% 0 in 0.00 W/m2 unknown
05:49 30.2 °F 24.8 °F 30.5 in Calm     82% 0 in 0.00 W/m2 unknown
05:54 30.2 °F 24.8 °F 30.5 in Calm     83% 0 in 0.00 W/m2 unknown
05:59 30.2 °F 26.6 °F 30.5 in Calm     83% 0 in 0.00 W/m2 unknown
06:04 30.2 °F 26.6 °F 30.5 in Calm     83% 0 in 0.00 W/m2 unknown
06:09 30.2 °F 26.6 °F 30.5 in Calm     83% 0 in 0.00 W/m2 unknown
06:14 30.2 °F 24.8 °F 30.5 in Calm     83% 0 in 0.00 W/m2 unknown
06:19 30.2 °F 24.8 °F 30.5 in Calm     84% 0 in 0.00 W/m2 unknown
06:24 30.2 °F 24.8 °F 30.5 in Calm     84% 0 in 0.00 W/m2 unknown
06:29 30.2 °F 26.6 °F 30.5 in Calm     85% 0 in 0.00 W/m2 unknown
06:34 30.2 °F 26.6 °F 30.5 in Calm     85% 0 in 0.00 W/m2 unknown
06:39 30.2 °F 24.8 °F 30.5 in Calm     84% 0 in 0.00 W/m2 unknown
06:44 30.2 °F 26.6 °F 30.5 in Calm     84% 0 in 0.00 W/m2 unknown
06:49 30.2 °F 24.8 °F 30.5 in Calm     84% 0 in 0.00 W/m2 unknown
06:54 30.2 °F 26.6 °F 30.5 in Calm     85% 0 in 0.00 W/m2 unknown
06:59 30.2 °F 26.6 °F 30.5 in Calm     85% 0 in 0.00 W/m2 unknown
07:04 30.2 °F 26.6 °F 30.5 in NE 1.2 mph 2.5 mph 85% 0 in 0.00 W/m2 unknown
07:09 30.2 °F 26.6 °F 30.5 in NE 1.9 mph 2.5 mph 86% 0 in 0.00 W/m2 unknown
07:14 30.2 °F 26.6 °F 30.5 in NE 1.2 mph 2.5 mph 87% 0 in 0.00 W/m2 unknown
07:19 30.2 °F 26.6 °F 30.5 in NE 1.9 mph 3.7 mph 87% 0 in 0.00 W/m2 unknown
07:24 30.2 °F 26.6 °F 30.5 in NE 2.5 mph 3.7 mph 87% 0 in 0.00 W/m2 unknown
07:29 30.2 °F 26.6 °F 30.5 in NE 2.5 mph 3.7 mph 87% 0 in 5.00 W/m2 unknown
07:34 30.2 °F 26.6 °F 30.5 in NE 1.2 mph 3.1 mph 87% 0 in 7.00 W/m2 unknown
07:39 30.2 °F 26.6 °F 30.5 in NE 1.2 mph 2.5 mph 87% 0 in 11.00 W/m2 unknown
07:44 30.2 °F 26.6 °F 30.5 in NE 1.9 mph 2.5 mph 88% 0 in 12.00 W/m2 unknown
07:49 30.2 °F 26.6 °F 30.5 in NE 1.9 mph 3.7 mph 88% 0 in 14.00 W/m2 unknown
07:54 30.2 °F 26.6 °F 30.5 in NE 1.2 mph 3.1 mph 88% 0 in 18.00 W/m2 unknown
07:59 30.2 °F 26.6 °F 30.5 in Calm   1.9 mph 88% 0 in 21.00 W/m2 unknown
08:04 30.2 °F 26.6 °F 30.5 in Calm     88% 0 in 23.00 W/m2 unknown
08:09 30.2 °F 28.4 °F 30.5 in NNE 0.6 mph 2.5 mph 87% 0 in 46.00 W/m2 unknown
08:14 32 °F 28.4 °F 30.5 in Calm   1.9 mph 87% 0 in 56.00 W/m2 unknown
08:19 32 °F 28.4 °F 30.5 in Calm   1.2 mph 86% 0 in 63.00 W/m2 unknown
08:24 32 °F 28.4 °F 30.5 in Calm     86% 0 in 77.00 W/m2 unknown
08:29 32 °F 28.4 °F 30.5 in Calm     85% 0 in 90.00 W/m2 unknown
08:34 33.8 °F 28.4 °F 30.5 in Calm     83% 0 in 102.00 W/m2 unknown
08:39 33.8 °F 28.4 °F 30.5 in Calm   1.2 mph 82% 0 in 111.00 W/m2 unknown
08:44 33.8 °F 28.4 °F 30.5 in Calm   1.2 mph 82% 0 in 123.00 W/m2 unknown
08:49 35.6 °F 28.4 °F 30.5 in Calm   1.2 mph 81% 0 in 139.00 W/m2 unknown
08:54 35.6 °F 28.4 °F 30.5 in Calm     80% 0 in 151.00 W/m2 unknown
08:59 35.6 °F 28.4 °F 30.5 in NE 0.6 mph 1.2 mph 78% 0 in 165.00 W/m2 unknown
09:04 35.6 °F 30.2 °F 30.5 in Calm   1.2 mph 77% 0 in 181.00 W/m2 unknown
09:09 37.4 °F 30.2 °F 30.5 in NE 0.6 mph 1.2 mph 77% 0 in 193.00 W/m2 unknown
09:14 37.4 °F 30.2 °F 30.5 in Calm   1.2 mph 76% 0 in 206.00 W/m2 unknown
09:19 39.2 °F 30.2 °F 30.5 in Calm   1.2 mph 74% 0 in 218.00 W/m2 unknown
09:24 39.2 °F 30.2 °F 30.5 in NE 0.6 mph 1.2 mph 73% 0 in 230.00 W/m2 unknown
09:29 39.2 °F 30.2 °F 30.5 in NE 1.2 mph 1.9 mph 72% 0 in 241.00 W/m2 unknown
09:34 41 °F 30.2 °F 30.5 in East 1.9 mph 3.7 mph 70% 0 in 251.00 W/m2 unknown
09:39 41 °F 32 °F 30.5 in ESE 1.9 mph 3.7 mph 69% 0 in 264.00 W/m2 unknown
09:44 41 °F 32 °F 30.5 in East 1.9 mph 3.7 mph 69% 0 in 276.00 W/m2 unknown
09:49 41 °F 32 °F 30.5 in East 2.5 mph 3.7 mph 68% 0 in 287.00 W/m2 unknown
09:54 42.8 °F 32 °F 30.5 in ESE 2.5 mph 3.7 mph 68% 0 in 295.00 W/m2 unknown
09:59 42.8 °F 32 °F 30.5 in East 2.5 mph 5 mph 68% 0 in 306.00 W/m2 unknown
10:04 42.8 °F 32 °F 30.5 in ENE 1.9 mph 5 mph 68% 0 in 316.00 W/m2 unknown
10:09 42.8 °F 33.8 °F 30.5 in ENE 2.5 mph 3.7 mph 69% 0 in 325.00 W/m2 unknown
10:14 42.8 °F 33.8 °F 30.5 in ENE 1.9 mph 3.7 mph 69% 0 in 336.00 W/m2 unknown
10:19 44.6 °F 33.8 °F 30.5 in NE 2.5 mph 3.7 mph 66% 0 in 345.00 W/m2 unknown
10:24 44.6 °F 33.8 °F 30.5 in NNE 1.9 mph 3.7 mph 67% 0 in 353.00 W/m2 unknown
10:29 44.6 °F 35.6 °F 30.5 in NNE 2.5 mph 3.7 mph 68% 0 in 364.00 W/m2 unknown
10:34 44.6 °F 33.8 °F 30.5 in NNE 1.2 mph 3.1 mph 66% 0 in 373.00 W/m2 unknown
10:39 44.6 °F 35.6 °F 30.5 in North 1.9 mph 3.1 mph 66% 0 in 381.00 W/m2 unknown
10:44 44.6 °F 33.8 °F 30.5 in NE 1.2 mph 2.5 mph 64% 0 in 388.00 W/m2 unknown
10:49 46.4 °F 35.6 °F 30.5 in NE 1.9 mph 3.7 mph 67% 0 in 396.00 W/m2 unknown
10:54 46.4 °F 35.6 °F 30.5 in NNE 1.9 mph 3.7 mph 66% 0 in 404.00 W/m2 unknown
10:59 46.4 °F 33.8 °F 30.5 in NE 1.9 mph 3.7 mph 62% 0 in 413.00 W/m2 unknown
11:04 48.2 °F 35.6 °F 30.5 in NE 1.9 mph 3.7 mph 62% 0 in 420.00 W/m2 unknown
11:09 48.2 °F 35.6 °F 30.5 in NE 2.5 mph 3.7 mph 63% 0 in 425.00 W/m2 unknown
11:14 48.2 °F 35.6 °F 30.5 in NE 1.9 mph 3.7 mph 63% 0 in 429.00 W/m2 unknown
11:19 48.2 °F 35.6 °F 30.5 in East 1.9 mph 3.1 mph 61% 0 in 432.00 W/m2 unknown
11:24 48.2 °F 35.6 °F 30.5 in ESE 0.6 mph 2.5 mph 60% 0 in 439.00 W/m2 unknown
11:29 48.2 °F 35.6 °F 30.5 in ESE 1.9 mph 3.7 mph 60% 0 in 446.00 W/m2 unknown
11:34 48.2 °F 35.6 °F 30.5 in NE 3.1 mph 3.7 mph 59% 0 in 452.00 W/m2 unknown
11:39 50 °F 35.6 °F 30.5 in North 2.5 mph 3.7 mph 60% 0 in 457.00 W/m2 unknown
11:44 50 °F 35.6 °F 30.5 in NW 2.5 mph 3.7 mph 58% 0 in 459.00 W/m2 unknown
11:49 50 °F 35.6 °F 30.5 in WSW 2.5 mph 3.7 mph 57% 0 in 464.00 W/m2 unknown
11:54 50 °F 35.6 °F 30.5 in WSW 3.7 mph 3.7 mph 57% 0 in 468.00 W/m2 unknown
11:59 50 °F 35.6 °F 30.5 in WSW 3.1 mph 3.7 mph 58% 0 in 473.00 W/m2 unknown
12:04 50 °F 35.6 °F 30.5 in SW 3.1 mph 5 mph 58% 0 in 476.00 W/m2 unknown
12:09 50 °F 35.6 °F 30.5 in SSW 3.1 mph 5 mph 56% 0 in 480.00 W/m2 unknown
12:14 51.8 °F 35.6 °F 30.5 in South 2.5 mph 5 mph 57% 0 in 483.00 W/m2 unknown
12:19 51.8 °F 35.6 °F 30.5 in South 3.1 mph 3.7 mph 56% 0 in 485.00 W/m2 unknown
12:24 51.8 °F 37.4 °F 30.5 in West 3.1 mph 3.7 mph 56% 0 in 487.00 W/m2 unknown
12:29 51.8 °F 35.6 °F 30.5 in West 3.1 mph 3.7 mph 55% 0 in 487.00 W/m2 unknown
12:34 51.8 °F 35.6 °F 30.4 in West 3.7 mph 5 mph 54% 0 in 487.00 W/m2 unknown
12:39 51.8 °F 35.6 °F 30.4 in West 3.1 mph 5 mph 54% 0 in 487.00 W/m2 unknown
12:44 53.6 °F 37.4 °F 30.4 in SSW 0.6 mph 5 mph 56% 0 in 489.00 W/m2 unknown
12:49 53.6 °F 37.4 °F 30.4 in West 3.7 mph 5 mph 55% 0 in 489.00 W/m2 unknown
12:54 53.6 °F 37.4 °F 30.4 in West 3.7 mph 5 mph 56% 0 in 487.00 W/m2 unknown
12:59 53.6 °F 39.2 °F 30.4 in NW 3.1 mph 5 mph 58% 0 in 487.00 W/m2 unknown
13:04 55.4 °F 39.2 °F 30.4 in NW 3.7 mph 5 mph 58% 0 in 489.00 W/m2 unknown
13:09 55.4 °F 39.2 °F 30.4 in NW 3.1 mph 5 mph 57% 0 in 489.00 W/m2 unknown
13:14 55.4 °F 41 °F 30.4 in WNW 5.6 mph 9.3 mph 58% 0 in 487.00 W/m2 unknown
13:19 55.4 °F 41 °F 30.4 in NW 5 mph 8.7 mph 58% 0 in 482.00 W/m2 unknown
13:24 55.4 °F 41 °F 30.4 in NW 3.7 mph 5 mph 58% 0 in 478.00 W/m2 unknown
13:29 57.2 °F 41 °F 30.4 in NW 2.5 mph 5 mph 56% 0 in 476.00 W/m2 unknown
13:34 57.2 °F 41 °F 30.4 in WNW 3.7 mph 5 mph 56% 0 in 473.00 W/m2 unknown
13:39 57.2 °F 42.8 °F 30.4 in WNW 6.2 mph 8.1 mph 57% 0 in 471.00 W/m2 unknown
13:44 57.2 °F 42.8 °F 30.4 in NW 5 mph 8.1 mph 58% 0 in 464.00 W/m2 unknown
13:49 57.2 °F 42.8 °F 30.4 in NW 5 mph 8.1 mph 58% 0 in 461.00 W/m2 unknown
13:54 57.2 °F 42.8 °F 30.4 in WNW 5.6 mph 8.1 mph 58% 0 in 454.00 W/m2 unknown
13:59 57.2 °F 42.8 °F 30.4 in West 5 mph 8.1 mph 59% 0 in 450.00 W/m2 unknown
14:04 57.2 °F 42.8 °F 30.4 in West 6.8 mph 9.3 mph 59% 0 in 445.00 W/m2 unknown
14:09 57.2 °F 42.8 °F 30.4 in NW 7.5 mph 9.3 mph 58% 0 in 439.00 W/m2 unknown
14:14 57.2 °F 42.8 °F 30.4 in WNW 5 mph 8.7 mph 58% 0 in 431.00 W/m2 unknown
14:19 57.2 °F 42.8 °F 30.4 in WNW 4.3 mph 6.2 mph 58% 0 in 422.00 W/m2 unknown
14:24 57.2 °F 42.8 °F 30.4 in WNW 8.7 mph 11.8 mph 58% 0 in 415.00 W/m2 unknown
14:29 57.2 °F 42.8 °F 30.4 in WNW 7.5 mph 11.8 mph 58% 0 in 408.00 W/m2 unknown
14:34 59 °F 42.8 °F 30.4 in WNW 6.2 mph 9.9 mph 58% 0 in 404.00 W/m2 unknown
14:39 59 °F 42.8 °F 30.4 in NW 6.2 mph 8.1 mph 57% 0 in 397.00 W/m2 unknown
14:44 59 °F 42.8 °F 30.4 in WNW 5 mph 8.1 mph 57% 0 in 385.00 W/m2 unknown
14:49 59 °F 42.8 °F 30.4 in WNW 6.2 mph 8.1 mph 57% 0 in 378.00 W/m2 unknown
14:54 59 °F 42.8 °F 30.4 in WNW 6.2 mph 8.1 mph 57% 0 in 367.00 W/m2 unknown
14:59 59 °F 44.6 °F 30.4 in West 5.6 mph 8.1 mph 58% 0 in 352.00 W/m2 unknown
15:04 59 °F 44.6 °F 30.4 in WNW 6.2 mph 8.1 mph 58% 0 in 345.00 W/m2 unknown
15:09 59 °F 44.6 °F 30.4 in WNW 5 mph 6.2 mph 58% 0 in 332.00 W/m2 unknown
15:14 59 °F 44.6 °F 30.4 in WNW 6.2 mph 8.1 mph 57% 0 in 327.00 W/m2 unknown
15:19 59 °F 44.6 °F 30.4 in West 6.2 mph 8.1 mph 58% 0 in 309.00 W/m2 unknown
15:24 59 °F 44.6 °F 30.4 in West 6.8 mph 9.3 mph 58% 0 in 299.00 W/m2 unknown
15:29 59 °F 44.6 °F 30.4 in West 5 mph 6.8 mph 58% 0 in 288.00 W/m2 unknown
15:34 59 °F 44.6 °F 30.4 in West 7.5 mph 9.3 mph 58% 0 in 272.00 W/m2 unknown
15:39 59 °F 44.6 °F 30.4 in West 5.6 mph 8.7 mph 59% 0 in 265.00 W/m2 unknown
15:44 59 °F 44.6 °F 30.4 in WSW 4.3 mph 8.1 mph 59% 0 in 248.00 W/m2 unknown
15:49 59 °F 44.6 °F 30.4 in West 5.6 mph 6.8 mph 59% 0 in 243.00 W/m2 unknown
15:54 59 °F 44.6 °F 30.4 in West 5.6 mph 6.8 mph 59% 0 in 234.00 W/m2 unknown
15:59 59 °F 44.6 °F 30.4 in West 5 mph 8.1 mph 59% 0 in 218.00 W/m2 unknown
16:04 59 °F 44.6 °F 30.4 in West 6.2 mph 8.1 mph 59% 0 in 202.00 W/m2 unknown
16:09 59 °F 44.6 °F 30.4 in West 6.2 mph 8.1 mph 61% 0 in 188.00 W/m2 unknown
16:14 59 °F 44.6 °F 30.4 in WSW 5.6 mph 8.1 mph 61% 0 in 169.00 W/m2 unknown
16:19 59 °F 44.6 °F 30.4 in WSW 5 mph 6.8 mph 60% 0 in 163.00 W/m2 unknown
16:24 59 °F 44.6 °F 30.4 in SW 5 mph 6.8 mph 60% 0 in 149.00 W/m2 unknown
16:29 59 °F 44.6 °F 30.4 in SW 3.7 mph 6.8 mph 61% 0 in 135.00 W/m2 unknown
16:34 57.2 °F 44.6 °F 30.4 in SW 5.6 mph 6.2 mph 61% 0 in 42.00 W/m2 unknown
16:39 57.2 °F 44.6 °F 30.4 in WSW 5 mph 6.2 mph 62% 0 in 40.00 W/m2 unknown
16:44 57.2 °F 44.6 °F 30.4 in WSW 3.1 mph 5 mph 62% 0 in 39.00 W/m2 unknown
16:49 57.2 °F 44.6 °F 30.4 in SW 3.1 mph 5 mph 63% 0 in 35.00 W/m2 unknown
16:54 57.2 °F 44.6 °F 30.4 in SW 3.7 mph 5 mph 63% 0 in 33.00 W/m2 unknown
16:59 57.2 °F 44.6 °F 30.4 in SW 3.1 mph 5 mph 64% 0 in 39.00 W/m2 unknown
17:04 57.2 °F 44.6 °F 30.4 in SW 2.5 mph 5 mph 64% 0 in 39.00 W/m2 unknown
17:09 57.2 °F 44.6 °F 30.4 in SW 3.1 mph 3.7 mph 65% 0 in 30.00 W/m2 unknown
17:14 57.2 °F 44.6 °F 30.4 in SW 2.5 mph 3.7 mph 66% 0 in 23.00 W/m2 unknown
17:19 55.4 °F 44.6 °F 30.4 in SW 3.1 mph 3.7 mph 67% 0 in 16.00 W/m2 unknown
17:24 55.4 °F 44.6 °F 30.4 in SW 3.1 mph 5 mph 67% 0 in 12.00 W/m2 unknown
17:29 55.4 °F 44.6 °F 30.4 in SW 2.5 mph 5 mph 69% 0 in 9.00 W/m2 unknown
17:34 55.4 °F 44.6 °F 30.4 in SW 3.1 mph 3.7 mph 69% 0 in 7.00 W/m2 unknown
17:39 53.6 °F 44.6 °F 30.4 in SW 2.5 mph 3.7 mph 70% 0 in 0.00 W/m2 unknown
17:44 53.6 °F 44.6 °F 30.4 in SW 2.5 mph 3.7 mph 71% 0 in 0.00 W/m2 unknown
17:49 53.6 °F 42.8 °F 30.4 in SW 2.5 mph 3.7 mph 72% 0 in 0.00 W/m2 unknown
17:54 51.8 °F 42.8 °F 30.4 in SW 1.9 mph 3.7 mph 73% 0 in 0.00 W/m2 unknown
17:59 51.8 °F 42.8 °F 30.4 in SW 1.9 mph 3.7 mph 75% 0 in 0.00 W/m2 unknown
18:04 50 °F 42.8 °F 30.4 in SW 1.2 mph 3.1 mph 76% 0 in 0.00 W/m2 unknown
18:09 50 °F 42.8 °F 30.4 in SW 1.2 mph 2.5 mph 77% 0 in 0.00 W/m2 unknown
18:14 50 °F 42.8 °F 30.4 in SW 1.2 mph 2.5 mph 77% 0 in 0.00 W/m2 unknown
18:19 50 °F 42.8 °F 30.4 in SW 2.5 mph 3.7 mph 77% 0 in 0.00 W/m2 unknown
18:24 50 °F 42.8 °F 30.4 in SSW 2.5 mph 3.7 mph 78% 0 in 0.00 W/m2 unknown
18:29 48.2 °F 42.8 °F 30.4 in SSW 1.9 mph 3.1 mph 78% 0 in 0.00 W/m2 unknown
18:34 48.2 °F 42.8 °F 30.4 in SSW 2.5 mph 3.7 mph 79% 0 in 0.00 W/m2 unknown
18:39 48.2 °F 42.8 °F 30.4 in SSW 2.5 mph 3.7 mph 79% 0 in 0.00 W/m2 unknown
18:44 48.2 °F 42.8 °F 30.4 in SSW 2.5 mph 3.7 mph 79% 0 in 0.00 W/m2 unknown
18:49 48.2 °F 42.8 °F 30.4 in SSW 3.1 mph 3.7 mph 79% 0 in 0.00 W/m2 unknown
18:54 48.2 °F 42.8 °F 30.4 in SSW 3.1 mph 3.7 mph 83% 0 in 0.00 W/m2 unknown
18:59 48.2 °F 42.8 °F 30.4 in SSW 2.5 mph 3.7 mph 83% 0 in 0.00 W/m2 unknown
19:04 46.4 °F 41 °F 30.4 in SSW 2.5 mph 3.7 mph 80% 0 in 0.00 W/m2 unknown
19:09 46.4 °F 41 °F 30.4 in SSW 2.5 mph 3.7 mph 80% 0 in 0.00 W/m2 unknown
19:14 48.2 °F 41 °F 30.4 in SSW 2.5 mph 3.7 mph 80% 0 in 0.00 W/m2 unknown
19:19 48.2 °F 41 °F 30.4 in SSW 2.5 mph 3.7 mph 81% 0 in 0.00 W/m2 unknown
19:24 46.4 °F 41 °F 30.4 in SSW 2.5 mph 3.7 mph 81% 0 in 0.00 W/m2 unknown
19:29 46.4 °F 41 °F 30.4 in SSW 2.5 mph 3.7 mph 82% 0 in 0.00 W/m2 unknown
19:34 46.4 °F 41 °F 30.4 in SSW 2.5 mph 3.7 mph 82% 0 in 0.00 W/m2 unknown
19:39 46.4 °F 41 °F 30.4 in SSW 2.5 mph 3.7 mph 82% 0 in 0.00 W/m2 unknown
19:44 44.6 °F 41 °F 30.4 in SSW 2.5 mph 3.7 mph 83% 0 in 0.00 W/m2 unknown
19:49 44.6 °F 41 °F 30.4 in SSW 1.9 mph 3.1 mph 83% 0 in 0.00 W/m2 unknown
19:54 44.6 °F 41 °F 30.4 in SSW 2.5 mph 3.7 mph 83% 0 in 0.00 W/m2 unknown
19:59 44.6 °F 41 °F 30.4 in SSW 2.5 mph 3.7 mph 83% 0 in 0.00 W/m2 unknown
20:04 44.6 °F 39.2 °F 30.4 in SSW 3.1 mph 3.7 mph 83% 0 in 0.00 W/m2 unknown
20:09 44.6 °F 39.2 °F 30.4 in SSW 2.5 mph 3.7 mph 83% 0 in 0.00 W/m2 unknown
20:14 44.6 °F 39.2 °F 30.4 in SSW 1.9 mph 3.7 mph 84% 0 in 0.00 W/m2 unknown
20:19 44.6 °F 39.2 °F 30.4 in SSW 2.5 mph 3.7 mph 84% 0 in 0.00 W/m2 unknown
20:24 44.6 °F 41 °F 30.4 in SSW 3.1 mph 3.7 mph 84% 0 in 0.00 W/m2 unknown
20:29 44.6 °F 41 °F 30.4 in SW 2.5 mph 3.7 mph 84% 0 in 0.00 W/m2 unknown
20:34 44.6 °F 39.2 °F 30.4 in SW 3.1 mph 3.7 mph 84% 0 in 0.00 W/m2 unknown
20:39 44.6 °F 39.2 °F 30.4 in SW 2.5 mph 3.7 mph 84% 0 in 0.00 W/m2 unknown
20:44 44.6 °F 39.2 °F 30.4 in SW 2.5 mph 3.7 mph 84% 0 in 0.00 W/m2 unknown
20:49 44.6 °F 39.2 °F 30.4 in WSW 2.5 mph 3.7 mph 85% 0 in 0.00 W/m2 unknown
20:54 44.6 °F 39.2 °F 30.4 in WSW 3.1 mph 3.7 mph 85% 0 in 0.00 W/m2 unknown
20:59 42.8 °F 39.2 °F 30.4 in SW 2.5 mph 3.7 mph 85% 0 in 0.00 W/m2 unknown
21:04 42.8 °F 39.2 °F 30.4 in SW 2.5 mph 3.7 mph 85% 0 in 0.00 W/m2 unknown
21:09 42.8 °F 39.2 °F 30.4 in SW 2.5 mph 3.7 mph 86% 0 in 0.00 W/m2 unknown
21:14 42.8 °F 39.2 °F 30.4 in WSW 2.5 mph 3.7 mph 86% 0 in 0.00 W/m2 unknown
21:19 42.8 °F 39.2 °F 30.4 in SW 3.1 mph 3.7 mph 86% 0 in 0.00 W/m2 unknown
21:24 42.8 °F 39.2 °F 30.4 in SW 3.1 mph 3.7 mph 87% 0 in 0.00 W/m2 unknown
21:29 42.8 °F 39.2 °F 30.4 in SW 2.5 mph 3.7 mph 87% 0 in 0.00 W/m2 unknown
21:34 42.8 °F 37.4 °F 30.4 in SW 3.1 mph 3.7 mph 87% 0 in 0.00 W/m2 unknown
21:39 42.8 °F 37.4 °F 30.4 in SW 1.9 mph 3.7 mph 87% 0 in 0.00 W/m2 unknown
21:44 41 °F 37.4 °F 30.4 in SW 1.9 mph 3.1 mph 87% 0 in 0.00 W/m2 unknown
21:49 41 °F 37.4 °F 30.4 in WSW 2.5 mph 3.7 mph 87% 0 in 0.00 W/m2 unknown
21:54 41 °F 37.4 °F 30.4 in West 2.5 mph 3.7 mph 87% 0 in 0.00 W/m2 unknown
21:59 41 °F 37.4 °F 30.4 in West 1.2 mph 3.1 mph 87% 0 in 0.00 W/m2 unknown
22:04 41 °F 37.4 °F 30.4 in WNW 1.9 mph 2.5 mph 87% 0 in 0.00 W/m2 unknown
22:09 41 °F 37.4 °F 30.4 in NW 1.9 mph 3.7 mph 88% 0 in 0.00 W/m2 unknown
22:14 41 °F 37.4 °F 30.4 in NW 1.9 mph 3.1 mph 88% 0 in 0.00 W/m2 unknown
22:19 39.2 °F 37.4 °F 30.4 in NW 1.9 mph 2.5 mph 88% 0 in 0.00 W/m2 unknown
22:24 39.2 °F 37.4 °F 30.4 in NW 1.2 mph 2.5 mph 88% 0 in 0.00 W/m2 unknown
22:29 39.2 °F 35.6 °F 30.4 in NW 1.2 mph 2.5 mph 88% 0 in 0.00 W/m2 unknown
22:34 39.2 °F 35.6 °F 30.4 in Calm   1.9 mph 88% 0 in 0.00 W/m2 unknown
22:39 39.2 °F 35.6 °F 30.4 in Calm     88% 0 in 0.00 W/m2 unknown
22:44 39.2 °F 35.6 °F 30.4 in Calm     89% 0 in 0.00 W/m2 unknown
22:49 39.2 °F 35.6 °F 30.4 in Calm     89% 0 in 0.00 W/m2 unknown
22:54 39.2 °F 35.6 °F 30.4 in Calm     89% 0 in 0.00 W/m2 unknown
22:59 39.2 °F 37.4 °F 30.4 in WSW 3.1 mph 3.7 mph 90% 0 in 0.00 W/m2 unknown
23:04 39.2 °F 37.4 °F 30.4 in WSW 2.5 mph 3.7 mph 90% 0 in 0.00 W/m2 unknown
23:09 39.2 °F 37.4 °F 30.4 in WSW 3.7 mph 3.7 mph 91% 0 in 0.00 W/m2 unknown
23:14 41 °F 37.4 °F 30.4 in SW 3.1 mph 3.7 mph 91% 0 in 0.00 W/m2 unknown
23:19 41 °F 37.4 °F 30.4 in WSW 3.1 mph 3.7 mph 90% 0 in 0.00 W/m2 unknown
23:24 41 °F 39.2 °F 30.4 in WSW 3.1 mph 3.7 mph 90% 0 in 0.00 W/m2 unknown
23:29 41 °F 37.4 °F 30.4 in WSW 3.1 mph 3.7 mph 89% 0 in 0.00 W/m2 unknown
23:34 41 °F 37.4 °F 30.4 in WSW 3.7 mph 3.7 mph 89% 0 in 0.00 W/m2 unknown
23:39 41 °F 37.4 °F 30.4 in SW 3.1 mph 3.7 mph 89% 0 in 0.00 W/m2 unknown
23:44 41 °F 37.4 °F 30.4 in SW 2.5 mph 3.7 mph 89% 0 in 0.00 W/m2 unknown
23:49 41 °F 37.4 °F 30.4 in SW 2.5 mph 3.7 mph 89% 0 in 0.00 W/m2 unknown
23:54 41 °F 37.4 °F 30.4 in WSW 3.7 mph 3.7 mph 90% 0 in 0.00 W/m2 unknown
23:59 41 °F 39.2 °F 30.4 in SW 3.1 mph 3.7 mph 89% 0 in 0.00 W/m2 unknown
Stazione Meteorologica MeteoMincio Rivalta s/M (MN)
Con i complimenti di Weather Underground - 4 mb



GLOSSARIO METEOROLOGICO
Indice di calore (Heat Index)
Utilizza la temperatura e l'umidità relativa per determinare la sensazione di calore dell'aria. Quando l'umidità è bassa, la temperatura apparente sarà minore della temperatura dell'aria, dal momento che la traspirazione evapora rapidamente e raffredda il corpo. Quando l'umidità è alta, la temperatura apparente sembrerà più alta dell'attuale temperatura dell'aria, perchè la traspirazione del corpo evapora più lentamente.
Share

Non seguire questo link o sarai bannato dal sito!